Time;durP1;ratioP1;P1;durP2;ratioP2;P2;SDS_P1;SDS_P2;PMS_P1;PMS_P2;Temp;Humidity;BMP_temperature;BMP_pressure;BME280_temperature;BME280_humidity;BME280_pressure;Samples;Min_cycle;Max_cycle;Signal;HPM_P1;HPM_P2
2022/04/30 00:01:15;;;;;;;7.30;2.25;;;6.10;99.90;;;;;;5054788;28;20366;-75
2022/04/30 00:03:41;;;;;;;5.13;1.85;;;6.10;99.90;;;;;;5054537;28;20025;-76
2022/04/30 00:06:06;;;;;;;6.68;2.67;;;6.00;99.90;;;;;;5053824;28;20076;-75
2022/04/30 00:08:32;;;;;;;8.10;2.40;;;6.00;99.90;;;;;;5054954;28;20029;-75
2022/04/30 00:10:57;;;;;;;5.75;2.20;;;6.00;99.90;;;;;;5053674;28;20013;-75
2022/04/30 00:13:23;;;;;;;5.13;1.92;;;6.00;99.90;;;;;;5054595;28;20112;-75
2022/04/30 00:15:49;;;;;;;5.53;2.22;;;6.00;99.90;;;;;;5053968;28;20527;-75
2022/04/30 00:18:14;;;;;;;5.25;2.00;;;5.90;99.90;;;;;;5036481;28;20017;-75
2022/04/30 00:20:45;;;;;;;6.57;2.10;;;5.90;99.90;;;;;;5039934;28;20095;-76
2022/04/30 00:23:19;;;;;;;6.22;2.42;;;5.80;99.90;;;;;;5054339;28;20025;-76
2022/04/30 00:25:56;;;;;;;6.13;2.10;;;5.80;99.90;;;;;;5053533;28;20774;-75
2022/04/30 00:28:23;;;;;;;6.80;2.38;;;5.80;99.90;;;;;;5054286;28;20029;-75
2022/04/30 00:30:49;;;;;;;3.78;1.98;;;5.80;99.90;;;;;;5053872;28;20021;-75
2022/04/30 00:33:15;;;;;;;7.25;2.88;;;5.70;99.90;;;;;;5045065;28;20362;-75
2022/04/30 00:35:41;;;;;;;8.25;2.55;;;5.70;99.90;;;;;;5053765;28;20028;-76
2022/04/30 00:38:07;;;;;;;7.03;2.70;;;5.60;99.90;;;;;;5053996;28;20032;-75
2022/04/30 00:40:33;;;;;;;4.78;2.10;;;5.60;99.90;;;;;;5053685;28;20029;-75
2022/04/30 00:42:58;;;;;;;6.15;2.83;;;5.60;99.90;;;;;;5053813;28;20112;-75
2022/04/30 00:45:24;;;;;;;6.53;2.55;;;5.50;99.90;;;;;;5045716;28;20079;-75
2022/04/30 00:47:50;;;;;;;7.60;3.05;;;5.50;99.90;;;;;;5050600;28;20043;-76
2022/04/30 00:50:16;;;;;;;5.82;3.08;;;5.50;99.90;;;;;;5053668;28;20040;-76
2022/04/30 00:52:46;;;;;;;8.52;3.30;;;5.50;99.90;;;;;;5033080;28;20100;-75
2022/04/30 00:55:13;;;;;;;11.07;3.40;;;5.40;99.90;;;;;;5033914;28;20029;-75
2022/04/30 00:57:42;;;;;;;11.18;3.53;;;5.40;99.90;;;;;;5045882;28;20516;-75
2022/04/30 01:00:08;;;;;;;8.70;3.22;;;5.40;99.90;;;;;;5053449;28;20025;-75
2022/04/30 01:02:34;;;;;;;7.85;2.63;;;5.30;99.90;;;;;;5037817;28;20051;-75
2022/04/30 01:05:00;;;;;;;7.47;3.15;;;5.30;99.90;;;;;;5052866;28;20385;-75
2022/04/30 01:07:30;;;;;;;10.07;3.60;;;5.30;99.90;;;;;;5053171;28;20083;-75
2022/04/30 01:09:56;;;;;;;9.30;3.75;;;5.20;99.90;;;;;;5052960;28;20354;-75
2022/04/30 01:12:23;;;;;;;13.70;3.45;;;5.20;99.90;;;;;;5035810;28;20537;-75
2022/04/30 01:14:52;;;;;;;10.98;2.95;;;5.20;99.90;;;;;;5039264;28;20053;-75
2022/04/30 01:17:18;;;;;;;9.90;3.47;;;5.10;99.90;;;;;;5053123;28;20503;-75
2022/04/30 01:19:45;;;;;;;17.42;4.25;;;5.10;99.90;;;;;;5034820;28;20116;-75
2022/04/30 01:22:26;;;;;;;10.68;3.83;;;5.10;99.90;;;;;;5052624;28;20128;-75
2022/04/30 01:24:56;;;;;;;7.18;3.42;;;5.10;99.90;;;;;;5052769;28;20602;-75
2022/04/30 01:27:25;;;;;;;7.47;3.70;;;5.10;99.90;;;;;;5041329;28;20394;-75
2022/04/30 01:29:51;;;;;;;12.75;3.63;;;5.00;99.90;;;;;;5032867;28;20025;-75
2022/04/30 01:37:45;;;;;;;9.75;4.15;;;4.90;99.90;;;;;;5052813;28;20044;-75
2022/04/30 01:40:12;;;;;;;9.38;4.30;;;4.90;99.90;;;;;;5047716;28;20466;-75
2022/04/30 01:42:45;;;;;;;12.05;4.57;;;4.90;99.90;;;;;;5053302;28;20064;-75
2022/04/30 01:45:11;;;;;;;8.88;4.85;;;4.90;99.90;;;;;;5052504;28;20032;-76
2022/04/30 01:47:40;;;;;;;7.35;4.15;;;4.80;99.90;;;;;;5052434;28;20064;-75
2022/04/30 01:50:07;;;;;;;8.32;4.55;;;4.80;99.90;;;;;;5052786;28;20079;-75
2022/04/30 01:52:33;;;;;;;7.32;4.28;;;4.80;99.90;;;;;;5052830;28;20025;-75
2022/04/30 01:54:59;;;;;;;12.40;4.68;;;4.80;99.90;;;;;;5047114;28;20057;-75
2022/04/30 01:57:26;;;;;;;13.60;4.18;;;4.70;99.90;;;;;;5032456;28;20073;-75
2022/04/30 01:59:53;;;;;;;12.25;4.93;;;4.70;99.90;;;;;;5031695;28;20381;-75
2022/04/30 02:02:23;;;;;;;8.98;4.50;;;4.70;99.90;;;;;;5051190;28;20052;-75
2022/04/30 02:04:51;;;;;;;10.98;4.63;;;4.70;99.90;;;;;;5051777;28;20025;-75
2022/04/30 02:07:17;;;;;;;12.10;5.60;;;4.60;99.90;;;;;;5051815;28;20029;-75
2022/04/30 02:09:43;;;;;;;9.68;4.70;;;4.70;99.90;;;;;;5046308;28;20025;-75
2022/04/30 02:12:09;;;;;;;11.25;5.18;;;4.60;99.90;;;;;;5037140;28;20396;-75
2022/04/30 02:14:38;;;;;;;19.98;6.13;;;4.60;99.90;;;;;;5051984;28;20104;-75
2022/04/30 02:17:06;;;;;;;18.05;6.63;;;4.60;99.90;;;;;;5051945;28;20021;-75
2022/04/30 02:20:18;;;;;;;9.07;5.22;;;4.50;99.90;;;;;;5051785;28;20025;-75
2022/04/30 02:22:21;;;;;;;12.88;5.20;;;4.60;99.90;;;;;;5051849;28;20025;-75
2022/04/30 02:24:48;;;;;;;12.95;5.40;;;4.60;99.90;;;;;;5049341;28;20021;-75
2022/04/30 02:27:14;;;;;;;13.48;5.35;;;4.50;99.90;;;;;;5051832;28;20457;-75
2022/04/30 02:29:39;;;;;;;14.52;6.07;;;4.50;99.90;;;;;;5051810;28;20104;-75
2022/04/30 02:32:05;;;;;;;12.45;5.78;;;4.60;99.90;;;;;;5033901;28;20032;-75
2022/04/30 02:34:31;;;;;;;12.07;6.10;;;4.60;99.90;;;;;;5033931;28;20063;-75
2022/04/30 02:36:56;;;;;;;12.13;6.63;;;4.60;99.90;;;;;;5051650;28;20033;-75
2022/04/30 02:39:22;;;;;;;11.63;6.47;;;4.50;99.90;;;;;;5050869;28;20440;-75
2022/04/30 02:41:48;;;;;;;15.00;6.45;;;4.60;99.90;;;;;;5051402;28;20039;-75
2022/04/30 02:44:13;;;;;;;12.27;5.40;;;4.60;99.90;;;;;;5051339;28;20032;-75
2022/04/30 02:46:39;;;;;;;15.60;6.72;;;4.60;99.90;;;;;;5051126;28;20044;-75
2022/04/30 02:49:04;;;;;;;17.50;7.00;;;4.60;99.90;;;;;;5051613;28;20021;-75
2022/04/30 02:51:30;;;;;;;15.02;6.85;;;4.60;99.90;;;;;;5033816;28;20025;-75
2022/04/30 02:53:55;;;;;;;20.02;6.45;;;4.60;99.90;;;;;;5039002;28;20424;-75
2022/04/30 02:56:21;;;;;;;16.58;7.53;;;4.60;99.90;;;;;;5033500;28;20047;-76
2022/04/30 03:01:31;;;;;;;16.13;7.03;;;4.60;99.90;;;;;;5051542;28;20036;-75
2022/04/30 03:03:57;;;;;;;14.63;7.47;;;4.60;99.90;;;;;;5050784;28;20516;-76
2022/04/30 03:06:24;;;;;;;19.48;7.85;;;4.60;99.90;;;;;;5033164;28;20024;-75
2022/04/30 03:08:50;;;;;;;16.05;7.85;;;4.60;99.90;;;;;;5050346;28;20037;-76
2022/04/30 03:11:18;;;;;;;16.10;6.82;;;4.60;99.90;;;;;;5051382;28;20029;-76
2022/04/30 03:13:44;;;;;;;15.00;7.43;;;4.60;99.90;;;;;;5051114;28;20393;-75
2022/04/30 03:21:42;;;;;;;17.48;7.93;;;4.60;99.90;;;;;;5039458;28;20107;-75
2022/04/30 03:24:11;;;;;;;17.75;8.50;;;4.60;99.90;;;;;;5055154;28;20027;-75
2022/04/30 03:26:36;;;;;;;17.90;8.18;;;4.60;99.90;;;;;;5055191;28;20439;-75
2022/04/30 03:29:03;;;;;;;19.23;7.45;;;4.70;99.90;;;;;;5054745;28;20025;-75
2022/04/30 03:31:30;;;;;;;15.43;8.05;;;4.60;99.90;;;;;;5054952;28;20029;-75
2022/04/30 03:33:56;;;;;;;15.88;8.48;;;4.60;99.90;;;;;;5054784;28;20025;-75
2022/04/30 03:36:21;;;;;;;14.05;8.70;;;4.70;99.90;;;;;;5050956;28;20087;-75
2022/04/30 03:38:47;;;;;;;18.23;9.10;;;4.60;99.90;;;;;;5034875;28;20091;-75
2022/04/30 03:41:15;;;;;;;18.17;8.50;;;4.60;99.90;;;;;;5035098;28;20151;-75
2022/04/30 03:43:41;;;;;;;19.60;8.90;;;4.70;99.90;;;;;;5047263;28;20036;-75
2022/04/30 03:46:06;;;;;;;17.70;8.98;;;4.60;99.90;;;;;;5054739;28;20017;-75
2022/04/30 03:48:33;;;;;;;20.95;9.32;;;4.60;99.90;;;;;;5054638;28;20040;-75
2022/04/30 03:50:59;;;;;;;20.95;9.32;;;4.60;99.90;;;;;;5054287;28;20032;-75
2022/04/30 03:53:24;;;;;;;19.25;8.57;;;4.50;99.90;;;;;;5054803;28;20392;-75
2022/04/30 03:55:51;;;;;;;17.70;8.90;;;4.50;99.90;;;;;;5054110;28;20025;-75
2022/04/30 03:58:16;;;;;;;18.90;9.48;;;4.50;99.90;;;;;;5054681;28;20021;-75
2022/04/30 04:00:43;;;;;;;18.75;8.88;;;4.50;99.90;;;;;;5054141;28;20029;-75
2022/04/30 04:03:09;;;;;;;17.38;8.40;;;4.50;99.90;;;;;;5036180;28;20358;-75
2022/04/30 04:05:35;;;;;;;14.63;7.53;;;4.50;99.90;;;;;;5054361;28;20039;-75
2022/04/30 04:08:00;;;;;;;16.60;8.32;;;4.40;99.90;;;;;;5036122;28;20040;-76
2022/04/30 04:10:26;;;;;;;14.93;7.75;;;4.40;99.90;;;;;;5054753;28;20031;-75
2022/04/30 04:17:37;;;;;;;17.27;8.43;;;4.40;99.90;;;;;;5053972;28;20104;-75
2022/04/30 04:18:24;;;;;;;17.52;8.43;;;4.40;99.90;;;;;;5053817;28;20032;-75
2022/04/30 04:20:49;;;;;;;15.45;7.93;;;4.30;99.90;;;;;;5053513;28;20120;-75
2022/04/30 04:23:15;;;;;;;17.25;8.93;;;4.30;99.90;;;;;;5054243;28;20067;-75
2022/04/30 04:25:59;;;;;;;19.58;8.82;;;4.30;99.90;;;;;;5053619;28;20354;-75
2022/04/30 04:28:25;;;;;;;14.20;7.78;;;4.30;99.90;;;;;;5053680;28;20146;-75
2022/04/30 04:30:50;;;;;;;18.20;8.23;;;4.30;99.90;;;;;;5053819;28;20461;-75
2022/04/30 04:33:16;;;;;;;13.65;8.02;;;4.20;99.90;;;;;;5053207;28;20057;-75
2022/04/30 04:35:41;;;;;;;19.15;9.70;;;4.20;99.90;;;;;;5053662;28;20021;-75
2022/04/30 04:38:07;;;;;;;16.15;7.32;;;4.20;99.90;;;;;;5054193;28;20040;-75
2022/04/30 04:40:35;;;;;;;14.93;8.90;;;4.30;99.90;;;;;;5053855;28;20481;-75
2022/04/30 04:43:00;;;;;;;18.40;8.45;;;4.30;99.90;;;;;;5053591;28;20036;-75
2022/04/30 04:45:27;;;;;;;17.23;8.57;;;4.20;99.90;;;;;;5053690;28;20147;-75
2022/04/30 04:47:52;;;;;;;18.35;8.80;;;4.20;99.90;;;;;;5052632;28;20029;-75
2022/04/30 04:50:18;;;;;;;18.13;8.60;;;4.20;99.90;;;;;;5038334;28;20032;-75
2022/04/30 04:52:44;;;;;;;13.85;7.90;;;4.20;99.90;;;;;;5053177;28;20036;-75
2022/04/30 04:55:12;;;;;;;16.40;7.70;;;4.30;99.90;;;;;;5053606;28;20025;-75
2022/04/30 04:57:39;;;;;;;15.55;8.60;;;4.30;99.90;;;;;;5053174;28;20025;-75
2022/04/30 05:00:06;;;;;;;17.23;8.50;;;4.30;99.90;;;;;;5035896;28;20059;-75
2022/04/30 05:02:32;;;;;;;18.10;9.05;;;4.30;99.90;;;;;;5053257;28;20576;-75
2022/04/30 05:04:57;;;;;;;15.95;8.48;;;4.30;99.90;;;;;;5052179;28;20502;-75
2022/04/30 05:07:25;;;;;;;18.38;9.35;;;4.30;99.90;;;;;;5053465;28;20040;-75
2022/04/30 05:09:51;;;;;;;18.55;8.25;;;4.40;99.90;;;;;;5052774;28;20032;-75
2022/04/30 05:12:16;;;;;;;20.40;9.10;;;4.40;99.90;;;;;;5053531;28;20037;-75
2022/04/30 05:14:42;;;;;;;15.95;8.52;;;4.50;99.90;;;;;;5052877;28;20029;-75
2022/04/30 05:17:07;;;;;;;16.70;8.20;;;4.60;99.90;;;;;;5052470;28;20044;-75
2022/04/30 05:19:33;;;;;;;20.63;8.90;;;4.60;99.90;;;;;;5052874;28;20028;-76
2022/04/30 05:22:00;;;;;;;18.05;9.18;;;4.70;99.90;;;;;;5052698;28;20431;-75
2022/04/30 05:24:25;;;;;;;18.90;9.10;;;4.80;99.90;;;;;;5043848;28;20051;-75
2022/04/30 05:26:51;;;;;;;17.63;8.85;;;4.90;99.90;;;;;;5052141;28;20481;-75
2022/04/30 05:29:17;;;;;;;14.20;8.23;;;5.00;99.90;;;;;;5052907;28;20032;-75
2022/04/30 05:31:43;;;;;;;17.80;8.63;;;5.00;99.90;;;;;;5052142;28;20071;-75
2022/04/30 05:34:09;;;;;;;22.52;8.85;;;5.10;99.90;;;;;;5052953;28;20032;-75
2022/04/30 05:36:35;;;;;;;22.88;9.85;;;5.20;99.90;;;;;;5052807;28;20029;-75
2022/04/30 05:39:00;;;;;;;17.30;9.27;;;5.40;99.90;;;;;;5047125;28;20024;-75
2022/04/30 05:41:26;;;;;;;19.00;8.73;;;5.50;99.90;;;;;;5052014;28;20037;-75
2022/04/30 05:43:52;;;;;;;20.42;8.48;;;5.60;99.90;;;;;;5046594;28;20060;-75
2022/04/30 05:46:18;;;;;;;17.90;8.40;;;5.70;99.90;;;;;;5052064;28;20037;-75
2022/04/30 05:48:43;;;;;;;21.52;8.82;;;5.90;99.90;;;;;;5052221;28;20400;-76
2022/04/30 05:51:09;;;;;;;17.80;9.13;;;6.00;99.90;;;;;;5052375;28;20035;-75
2022/04/30 05:53:34;;;;;;;17.63;9.40;;;6.00;99.90;;;;;;5052399;28;20436;-75
2022/04/30 05:56:00;;;;;;;14.35;9.27;;;6.20;99.90;;;;;;5051831;28;20477;-75
2022/04/30 05:58:26;;;;;;;17.13;9.00;;;6.20;99.90;;;;;;5051732;28;20140;-75
2022/04/30 06:00:52;;;;;;;17.35;9.68;;;6.40;99.90;;;;;;5051895;28;20477;-75
2022/04/30 06:03:17;;;;;;;17.45;10.85;;;6.50;99.90;;;;;;5052778;28;20048;-75
2022/04/30 06:05:43;;;;;;;14.63;9.10;;;6.60;99.90;;;;;;5051774;28;20021;-76
2022/04/30 06:08:08;;;;;;;14.77;8.73;;;6.80;99.90;;;;;;5052307;28;20044;-75
2022/04/30 06:10:35;;;;;;;18.30;8.73;;;6.90;99.90;;;;;;5051826;28;20029;-75
2022/04/30 06:13:01;;;;;;;14.05;8.88;;;7.10;99.90;;;;;;5048856;28;20082;-75
2022/04/30 06:15:28;;;;;;;14.65;8.75;;;7.20;99.90;;;;;;5032229;28;20029;-76
2022/04/30 06:17:53;;;;;;;16.60;9.65;;;7.40;99.90;;;;;;5040744;28;20036;-76
2022/04/30 06:20:19;;;;;;;11.38;7.20;;;7.50;99.90;;;;;;5051621;28;20501;-75
2022/04/30 06:22:44;;;;;;;12.88;7.60;;;7.60;99.90;;;;;;5025628;28;20039;-75
2022/04/30 06:25:13;;;;;;;10.95;6.93;;;7.70;99.90;;;;;;5051656;28;20033;-75
2022/04/30 06:27:39;;;;;;;18.23;7.60;;;7.80;99.90;;;;;;5051342;28;20493;-76
2022/04/30 06:30:07;;;;;;;11.95;7.68;;;7.90;99.90;;;;;;5051659;28;20045;-76
2022/04/30 06:32:33;;;;;;;12.15;7.15;;;8.00;99.90;;;;;;5052124;28;20025;-76
2022/04/30 06:34:59;;;;;;;10.32;6.38;;;8.00;99.90;;;;;;5051454;28;20553;-76
2022/04/30 06:37:25;;;;;;;15.52;7.03;;;8.20;99.90;;;;;;5050447;28;20119;-76
2022/04/30 06:39:51;;;;;;;10.13;7.10;;;8.30;99.90;;;;;;5051047;28;20100;-75
2022/04/30 06:42:17;;;;;;;12.75;7.00;;;8.30;99.90;;;;;;5051680;28;20090;-75
2022/04/30 06:44:42;;;;;;;9.73;6.90;;;8.30;99.90;;;;;;5050958;28;20541;-75
2022/04/30 06:47:08;;;;;;;12.02;6.90;;;8.40;99.90;;;;;;5051666;28;20119;-76
2022/04/30 06:49:34;;;;;;;11.00;6.95;;;8.50;99.90;;;;;;5051434;28;20021;-76
2022/04/30 06:52:00;;;;;;;10.15;6.65;;;8.60;99.90;;;;;;5048353;28;20032;-75
2022/04/30 06:57:16;;;;;;;13.85;7.05;;;8.70;99.90;;;;;;5051720;28;20102;-76
2022/04/30 06:59:41;;;;;;;11.10;7.10;;;8.80;99.90;;;;;;5050571;28;20037;-76
2022/04/30 07:05:07;;;;;;;13.45;7.80;;;8.90;99.90;;;;;;5033852;28;20116;-76
2022/04/30 07:07:33;;;;;;;13.27;6.70;;;9.00;99.90;;;;;;5051360;28;20037;-75
2022/04/30 07:09:58;;;;;;;13.52;7.10;;;9.00;99.90;;;;;;5051098;28;20488;-75
2022/04/30 07:12:24;;;;;;;12.55;7.47;;;9.10;99.90;;;;;;5049494;28;20032;-76
2022/04/30 07:14:50;;;;;;;12.25;8.02;;;9.10;99.90;;;;;;5050703;28;20039;-75
2022/04/30 07:17:15;;;;;;;15.73;7.97;;;9.20;99.90;;;;;;5051234;28;20021;-76
2022/04/30 07:19:41;;;;;;;13.65;7.57;;;9.30;99.90;;;;;;5050390;28;20108;-76
2022/04/30 07:22:07;;;;;;;14.82;7.85;;;9.30;99.90;;;;;;5051158;28;20045;-76
2022/04/30 07:24:34;;;;;;;11.77;6.93;;;9.40;99.90;;;;;;5051354;28;20025;-76
2022/04/30 07:27:00;;;;;;;11.43;7.13;;;9.40;99.90;;;;;;5032034;28;20077;-76
2022/04/30 07:29:26;;;;;;;12.23;6.97;;;9.50;99.90;;;;;;5031290;28;20026;-75
2022/04/30 07:31:52;;;;;;;12.40;7.43;;;9.70;99.90;;;;;;5030833;28;20032;-76
2022/04/30 07:34:18;;;;;;;11.55;6.57;;;9.80;99.90;;;;;;5042586;28;20037;-76
2022/04/30 07:36:44;;;;;;;12.38;7.00;;;9.90;99.90;;;;;;5050942;28;20032;-76
2022/04/30 07:39:09;;;;;;;12.10;6.45;;;10.00;99.90;;;;;;5051289;28;20029;-76
2022/04/30 07:41:35;;;;;;;7.88;5.40;;;10.10;99.90;;;;;;5050766;28;20465;-76
2022/04/30 07:44:01;;;;;;;13.80;6.88;;;10.20;99.90;;;;;;5050498;28;20032;-76
2022/04/30 07:46:26;;;;;;;9.98;7.00;;;10.30;99.90;;;;;;5050732;28;20083;-76
2022/04/30 07:48:53;;;;;;;10.70;6.55;;;10.40;99.90;;;;;;5049987;28;20021;-76
2022/04/30 07:51:23;;;;;;;15.48;5.95;;;10.50;99.90;;;;;;5050926;28;20032;-77
2022/04/30 07:53:49;;;;;;;10.32;5.50;;;10.60;99.90;;;;;;5050643;28;20021;-76
2022/04/30 07:56:15;;;;;;;11.77;5.82;;;10.60;99.90;;;;;;5046044;28;20429;-76
2022/04/30 07:58:41;;;;;;;12.00;5.72;;;10.80;99.90;;;;;;5050689;28;20388;-76
2022/04/30 08:01:07;;;;;;;6.95;4.78;;;11.00;99.90;;;;;;5032934;28;20021;-76
2022/04/30 08:03:33;;;;;;;10.15;4.80;;;11.20;99.90;;;;;;5051350;28;20028;-76
2022/04/30 08:05:59;;;;;;;10.35;5.03;;;11.30;99.90;;;;;;5053955;28;20033;-77
2022/04/30 08:08:24;;;;;;;11.45;5.10;;;11.60;99.90;;;;;;5054453;28;20031;-77
2022/04/30 08:10:50;;;;;;;7.43;4.63;;;11.70;99.90;;;;;;5050229;28;20021;-76
2022/04/30 08:13:15;;;;;;;10.93;4.05;;;11.70;99.90;;;;;;5054612;28;20029;-77
2022/04/30 08:15:44;;;;;;;7.50;3.95;;;11.60;99.90;;;;;;5054184;28;20025;-76
2022/04/30 08:18:10;;;;;;;10.80;3.85;;;11.50;99.90;;;;;;5053743;28;20037;-76
2022/04/30 08:20:39;;;;;;;6.03;3.38;;;11.40;99.90;;;;;;5054084;28;20045;-76
2022/04/30 08:23:06;;;;;;;8.88;4.03;;;11.40;99.90;;;;;;5054205;28;20086;-76
2022/04/30 08:25:33;;;;;;;5.30;3.70;;;11.40;99.90;;;;;;5054333;28;20021;-76
2022/04/30 08:27:59;;;;;;;8.27;3.60;;;11.50;99.90;;;;;;5053708;28;20136;-76
2022/04/30 08:30:24;;;;;;;6.63;3.60;;;11.60;99.90;;;;;;5054118;28;20116;-76
2022/04/30 08:32:50;;;;;;;10.15;3.38;;;11.80;99.90;;;;;;5053315;28;20060;-77
2022/04/30 08:35:16;;;;;;;13.10;4.03;;;11.90;99.90;;;;;;5037703;28;20021;-76
2022/04/30 08:37:41;;;;;;;21.45;3.65;;;12.00;99.90;;;;;;5053696;28;20025;-76
2022/04/30 08:40:07;;;;;;;5.72;3.10;;;12.00;99.90;;;;;;5053961;28;20078;-77
2022/04/30 08:42:33;;;;;;;6.28;3.00;;;12.10;99.90;;;;;;5053713;28;20025;-76
2022/04/30 08:45:02;;;;;;;8.20;3.35;;;12.20;99.90;;;;;;5053446;28;20033;-77
2022/04/30 08:47:29;;;;;;;6.00;3.10;;;12.40;99.90;;;;;;5053394;28;20386;-77
2022/04/30 08:49:55;;;;;;;5.28;3.10;;;12.40;99.90;;;;;;5052879;28;20025;-77
2022/04/30 08:52:21;;;;;;;6.43;3.22;;;12.40;99.90;;;;;;5053490;28;20388;-77
2022/04/30 08:54:46;;;;;;;5.18;2.90;;;12.20;99.90;;;;;;5053199;28;20099;-77
2022/04/30 08:57:13;;;;;;;6.45;3.70;;;12.10;99.90;;;;;;5053789;28;20086;-77
2022/04/30 08:59:38;;;;;;;8.95;3.33;;;12.10;99.90;;;;;;5047573;28;20109;-77
2022/04/30 09:02:10;;;;;;;8.57;3.17;;;12.20;99.90;;;;;;5046358;28;20536;-76
2022/04/30 09:04:44;;;;;;;6.05;3.20;;;12.10;99.90;;;;;;5053749;28;20029;-76
2022/04/30 09:07:18;;;;;;;6.28;2.80;;;12.00;99.90;;;;;;5053480;28;20094;-76
2022/04/30 09:09:44;;;;;;;6.65;2.92;;;12.00;99.90;;;;;;5052854;28;20051;-77
2022/04/30 09:12:12;;;;;;;4.95;2.53;;;11.90;99.90;;;;;;5053383;28;20036;-77
2022/04/30 09:14:42;;;;;;;5.80;2.90;;;12.10;99.90;;;;;;5052367;28;20029;-76
2022/04/30 09:17:12;;;;;;;9.55;3.30;;;12.20;99.90;;;;;;5037264;28;20033;-77
2022/04/30 09:20:04;;;;;;;7.30;3.50;;;12.40;99.90;;;;;;5048200;28;20072;-77
2022/04/30 09:22:34;;;;;;;4.50;2.33;;;12.60;99.90;;;;;;5053468;28;20041;-77
2022/04/30 09:25:03;;;;;;;4.45;2.53;;;12.80;99.90;;;;;;5052342;28;20017;-77
2022/04/30 09:27:28;;;;;;;6.97;2.92;;;13.00;99.90;;;;;;5052962;28;20063;-77
2022/04/30 09:29:54;;;;;;;39.72;4.30;;;13.10;99.80;;;;;;5052909;28;20028;-77
2022/04/30 09:32:25;;;;;;;6.78;3.00;;;13.10;99.80;;;;;;5045888;28;20373;-77
2022/04/30 09:37:42;;;;;;;7.22;2.92;;;13.40;99.10;;;;;;5052915;28;20044;-77
2022/04/30 09:40:15;;;;;;;6.72;3.08;;;13.40;99.10;;;;;;5053005;28;20020;-77
2022/04/30 09:42:42;;;;;;;4.95;2.83;;;13.50;98.40;;;;;;5052355;28;20085;-77
2022/04/30 09:45:09;;;;;;;5.53;2.15;;;13.50;98.20;;;;;;5052096;28;20429;-77
2022/04/30 09:47:35;;;;;;;6.03;2.80;;;13.40;98.00;;;;;;5052767;28;20388;-77
2022/04/30 09:55:34;;;;;;;3.90;1.88;;;13.60;96.60;;;;;;5052831;28;20094;-77
2022/04/30 09:58:03;;;;;;;8.80;3.05;;;13.60;96.50;;;;;;5052004;28;20010;-77
2022/04/30 10:00:32;;;;;;;8.48;3.58;;;13.70;96.30;;;;;;5051740;28;20170;-77
2022/04/30 10:03:01;;;;;;;6.28;3.03;;;13.80;96.00;;;;;;5051409;28;20036;-77
2022/04/30 10:05:30;;;;;;;5.43;3.75;;;13.80;95.90;;;;;;5052477;28;20047;-77
2022/04/30 10:07:56;;;;;;;18.75;3.58;;;13.70;95.40;;;;;;5051769;28;20024;-77
2022/04/30 10:10:31;;;;;;;6.53;2.63;;;13.60;95.30;;;;;;5034631;28;20362;-77
2022/04/30 10:13:12;;;;;;;5.70;3.10;;;13.50;95.30;;;;;;5051162;28;20036;-77
2022/04/30 10:15:53;;;;;;;8.65;2.63;;;13.80;95.40;;;;;;5052318;28;20033;-77
2022/04/30 10:18:23;;;;;;;6.68;2.83;;;14.20;95.00;;;;;;5052305;28;20025;-77
2022/04/30 10:20:56;;;;;;;8.38;3.85;;;14.20;93.60;;;;;;5051083;28;20124;-77
2022/04/30 10:23:22;;;;;;;7.28;3.20;;;14.00;93.10;;;;;;5052097;28;20025;-76
2022/04/30 10:25:48;;;;;;;4.03;2.60;;;13.80;93.30;;;;;;5051366;28;20033;-77
2022/04/30 10:28:21;;;;;;;5.07;2.78;;;13.70;93.70;;;;;;5050774;28;20036;-77
2022/04/30 10:31:09;;;;;;;4.05;1.80;;;14.00;93.40;;;;;;5051676;28;20021;-76
2022/04/30 10:33:35;;;;;;;3.58;1.58;;;14.30;92.70;;;;;;5052136;28;20052;-77
2022/04/30 10:36:04;;;;;;;5.20;2.30;;;14.60;91.80;;;;;;5051309;28;20466;-76
2022/04/30 10:38:30;;;;;;;4.65;1.83;;;14.80;91.10;;;;;;5051684;28;20021;-77
2022/04/30 10:40:58;;;;;;;6.00;2.35;;;15.00;91.10;;;;;;5051264;28;20435;-77
2022/04/30 10:43:35;;;;;;;7.78;2.97;;;15.40;90.40;;;;;;5050760;28;20036;-77
2022/04/30 10:46:03;;;;;;;6.13;3.20;;;15.30;87.50;;;;;;5051308;28;20075;-77
2022/04/30 10:48:29;;;;;;;4.65;2.92;;;14.90;88.00;;;;;;5051606;28;20044;-77
2022/04/30 10:51:07;;;;;;;7.15;2.60;;;14.70;87.90;;;;;;5050857;28;20204;-77
2022/04/30 10:53:35;;;;;;;4.20;2.47;;;14.50;88.50;;;;;;5051534;28;20029;-77
2022/04/30 10:56:02;;;;;;;6.07;2.63;;;14.30;88.20;;;;;;5051130;28;20044;-77
2022/04/30 10:58:28;;;;;;;5.70;2.40;;;14.20;88.70;;;;;;5051209;28;20074;-77
2022/04/30 11:00:53;;;;;;;5.07;2.15;;;14.30;88.70;;;;;;5050767;28;20448;-77
2022/04/30 11:03:26;;;;;;;5.63;2.35;;;14.30;87.70;;;;;;5051164;28;20023;-77
2022/04/30 11:05:52;;;;;;;5.03;2.80;;;14.40;87.70;;;;;;5051143;28;20091;-77
2022/04/30 11:08:17;;;;;;;6.65;3.10;;;14.40;87.00;;;;;;5051343;28;20492;-77
2022/04/30 11:10:54;;;;;;;7.00;3.03;;;14.40;87.30;;;;;;5033255;28;20021;-77
2022/04/30 11:13:20;;;;;;;6.18;2.40;;;14.30;87.60;;;;;;5032074;28;20127;-77
2022/04/30 11:15:47;;;;;;;7.75;2.72;;;14.40;87.90;;;;;;5050706;28;20063;-76
2022/04/30 11:18:13;;;;;;;3.80;2.13;;;14.30;86.40;;;;;;5051132;28;20044;-77
2022/04/30 11:20:39;;;;;;;5.28;2.85;;;14.20;86.30;;;;;;5050658;28;20037;-77
2022/04/30 11:23:05;;;;;;;4.97;2.55;;;14.00;85.50;;;;;;5051200;28;20032;-76
2022/04/30 11:25:38;;;;;;;53.90;5.25;;;13.90;85.70;;;;;;5046037;28;20021;-77
2022/04/30 11:28:13;;;;;;;5.78;2.03;;;13.80;86.10;;;;;;5050986;28;20122;-77
2022/04/30 11:30:43;;;;;;;6.30;2.63;;;13.80;86.00;;;;;;5050587;28;20036;-76
2022/04/30 11:33:10;;;;;;;8.23;3.05;;;13.80;86.10;;;;;;5051210;28;20068;-77
2022/04/30 11:35:36;;;;;;;7.07;3.05;;;13.90;85.90;;;;;;5051385;28;20021;-77
2022/04/30 11:38:03;;;;;;;8.00;3.15;;;13.90;85.90;;;;;;5050749;28;20053;-77
2022/04/30 11:40:29;;;;;;;6.07;2.60;;;14.00;85.70;;;;;;5054473;28;20023;-77
2022/04/30 11:43:02;;;;;;;8.52;2.80;;;14.10;85.10;;;;;;5054093;28;20100;-77
2022/04/30 11:45:32;;;;;;;4.38;2.35;;;14.10;84.90;;;;;;5054816;28;20021;-77
2022/04/30 11:47:58;;;;;;;6.50;2.72;;;14.20;85.00;;;;;;5054423;28;20033;-77
2022/04/30 11:50:26;;;;;;;4.05;2.20;;;14.30;85.00;;;;;;5054843;28;20108;-77
2022/04/30 11:52:52;;;;;;;3.90;2.15;;;14.30;84.50;;;;;;5054648;28;20452;-77
2022/04/30 11:55:20;;;;;;;4.80;2.70;;;14.30;83.50;;;;;;5054237;28;20053;-77
2022/04/30 11:57:46;;;;;;;6.57;2.70;;;14.20;83.70;;;;;;5054025;28;20533;-77
2022/04/30 12:00:13;;;;;;;7.70;2.85;;;14.10;83.80;;;;;;5054610;28;20516;-77
2022/04/30 12:02:40;;;;;;;4.72;2.42;;;14.00;83.50;;;;;;5054219;28;20029;-76
2022/04/30 12:05:07;;;;;;;10.30;2.80;;;13.80;83.40;;;;;;5054821;28;20025;-77
2022/04/30 12:07:36;;;;;;;5.65;2.22;;;13.70;84.10;;;;;;5054311;28;20029;-77
2022/04/30 12:10:13;;;;;;;6.95;2.55;;;13.60;84.50;;;;;;5051759;28;20025;-77
2022/04/30 12:12:39;;;;;;;9.55;2.40;;;13.60;84.50;;;;;;5054273;28;20037;-77
2022/04/30 12:15:15;;;;;;;5.65;2.67;;;13.60;84.00;;;;;;5054552;28;20132;-77
2022/04/30 12:17:41;;;;;;;8.00;3.10;;;13.50;84.40;;;;;;5053841;28;20021;-77
2022/04/30 12:26:00;;;;;;;6.25;2.40;;;13.60;84.60;;;;;;5035463;28;20044;-76
2022/04/30 12:28:26;;;;;;;8.88;2.58;;;13.50;84.70;;;;;;5034298;28;20519;-77
2022/04/30 12:30:53;;;;;;;10.05;2.50;;;13.60;84.90;;;;;;5049310;28;20068;-76
2022/04/30 12:33:19;;;;;;;5.18;2.63;;;13.60;85.20;;;;;;5053780;28;20021;-77
2022/04/30 12:35:56;;;;;;;6.07;3.17;;;13.50;85.50;;;;;;5053383;28;20072;-77
2022/04/30 12:38:22;;;;;;;7.40;3.28;;;13.50;86.40;;;;;;5053708;28;20378;-76
2022/04/30 12:40:47;;;;;;;5.22;2.40;;;13.50;86.90;;;;;;5053513;28;20036;-77
2022/04/30 12:43:14;;;;;;;6.35;2.60;;;13.50;87.30;;;;;;5054025;28;20476;-76
2022/04/30 12:45:44;;;;;;;4.45;2.60;;;13.50;87.80;;;;;;5053363;28;20385;-76
2022/04/30 12:48:10;;;;;;;32.72;3.47;;;13.50;87.50;;;;;;5054095;28;20048;-77
2022/04/30 12:50:39;;;;;;;4.97;2.58;;;13.50;87.10;;;;;;5053462;28;20108;-77
2022/04/30 12:53:09;;;;;;;5.30;2.90;;;13.40;87.60;;;;;;5052015;28;20040;-77
2022/04/30 12:55:38;;;;;;;4.97;2.53;;;13.50;88.10;;;;;;5053485;28;20104;-76
2022/04/30 12:58:05;;;;;;;6.05;2.65;;;13.70;87.70;;;;;;5053670;28;20031;-77
2022/04/30 13:00:33;;;;;;;7.30;2.42;;;13.80;87.00;;;;;;5054012;28;20468;-77
2022/04/30 13:03:01;;;;;;;5.38;2.22;;;13.90;86.60;;;;;;5053006;28;20524;-77
2022/04/30 13:05:27;;;;;;;4.43;2.08;;;14.20;86.90;;;;;;5037269;28;20028;-76
2022/04/30 13:07:53;;;;;;;4.55;1.58;;;14.40;83.90;;;;;;5043645;28;20037;-77
2022/04/30 13:15:47;;;;;;;6.18;1.45;;;14.70;82.30;;;;;;5052797;28;20407;-77
2022/04/30 13:18:13;;;;;;;3.75;1.63;;;15.00;82.50;;;;;;5053051;28;20021;-78
2022/04/30 13:20:39;;;;;;;3.40;1.33;;;15.20;81.60;;;;;;5052727;28;20119;-77
2022/04/30 13:23:05;;;;;;;4.95;1.90;;;15.40;80.00;;;;;;5051727;28;20052;-77
2022/04/30 13:25:30;;;;;;;4.10;1.55;;;15.50;79.00;;;;;;5053031;28;20048;-77
2022/04/30 13:27:57;;;;;;;3.97;1.60;;;15.40;78.00;;;;;;5052556;28;20037;-77
2022/04/30 13:30:23;;;;;;;7.00;1.67;;;15.20;77.80;;;;;;5052844;28;20431;-77